Oconomowoc, WI (53066)

7:32 AM CST on February 10, 2016 (GMT -0600)
Hidden Ridge | | Change Station
CLOSE
Current Station
Personal Weather Station
Location: Oconomowoc, WI
Elevation: 909 ft
Nearby Weather Stations

Elev 909 ft 43.10 °N, 88.48 °W | Updated 4 minutes ago

Mostly Cloudy
Mostly Cloudy
9.0 °F
Feels Like 1 °F
N
4.2
Wind Variable Wind from West

Today
High -- | Low -- °F
--% Chance of Precip.
Yesterday
High -- | Low -- °F
Precip. -- in
Pressure 29.97 in
Visibility 10.0 miles
Clouds Mostly Cloudy 2800 ft
Windchill 1 °F
Dew Point 2 °F
Humidity 71%
Rainfall 0.00 in
Snow Depth Not available.
6:58 AM 5:17 PM
Waxing Crescent, 5% visible
METAR KUES 101245Z 30008KT 10SM BKN028 M15/M19 A2997
Pressure 29.97 in
Visibility 10.0 miles
Clouds Mostly Cloudy 2800 ft
Windchill 1 °F
Dew Point 2 °F
Humidity 71%
Rainfall 0.00 in
Snow Depth Not available.
6:58 AM 5:17 PM
Waxing Crescent, 5% visible
METAR KUES 101245Z 30008KT 10SM BKN028 M15/M19 A2997

10-Day Weather Forecast

Almanac

Astronomy

Feb. 10, 2016 Rise Set
Actual Time
Civil Twilight
Nautical Twilight
Astronomical Twilight
Moon
Length of Visible Light
Length of Day
Tomorrow will be .
, % of the Moon is Illuminated

Today's Extremes

State Highs State Lows

Community

WunderPhotos

Upload Photos

1,891,840 photos uploaded!

WunderBlog® & News

Nearby

Air Quality

  Air Quality AQ Index Pollutant
Not available.

Snow Depth

Station Depth Elevation

Earthquake Activity

City Distance Mag. Time & Date
Minimum magnitude displayed is 2.5.

Coastal Water Temperatures

Place Temperature

Stations

Nearby Weather Stations

Station Location Temp. Windchill Dew Point Humidity Wind Precip. Elev Updated Type
                   

Watches & Warnings

There are currently no watches in effect.